createdAt,value
2023-04-18T00:01:57.239Z,-66
2023-04-18T00:04:26.048Z,-67
2023-04-18T00:06:54.217Z,-67
2023-04-18T00:09:22.346Z,-67
2023-04-18T00:11:50.536Z,-67
2023-04-18T00:14:20.693Z,-68
2023-04-18T00:16:48.859Z,-67
2023-04-18T00:19:18.329Z,-67
2023-04-18T00:21:47.038Z,-68
2023-04-18T00:24:15.351Z,-67
2023-04-18T00:26:43.612Z,-68
2023-04-18T00:29:11.780Z,-67
2023-04-18T00:31:41.469Z,-67
2023-04-18T00:34:09.606Z,-68
2023-04-18T00:36:37.709Z,-67
2023-04-18T00:39:06.599Z,-67
2023-04-18T00:41:34.692Z,-67
2023-04-18T00:44:02.834Z,-67
2023-04-18T00:46:31.141Z,-67
2023-04-18T00:49:00.953Z,-67
2023-04-18T00:51:29.373Z,-67
2023-04-18T00:53:58.019Z,-66
2023-04-18T00:56:26.688Z,-67
2023-04-18T00:58:55.353Z,-67
2023-04-18T01:01:23.557Z,-68
2023-04-18T01:03:51.972Z,-67
2023-04-18T01:06:23.531Z,-68
2023-04-18T01:08:51.702Z,-67
2023-04-18T01:11:20.050Z,-68
2023-04-18T01:14:01.020Z,-68
2023-04-18T01:16:32.779Z,-68
2023-04-18T01:19:01.497Z,-66
2023-04-18T01:21:31.371Z,-66
2023-04-18T01:24:12.649Z,-68
2023-04-18T01:26:41.445Z,-68
2023-04-18T01:29:09.621Z,-67
2023-04-18T01:31:39.457Z,-67
2023-04-18T01:34:09.245Z,-68
2023-04-18T01:36:39.509Z,-67
2023-04-18T01:39:07.798Z,-67
2023-04-18T01:41:37.326Z,-68
2023-04-18T01:44:06.198Z,-67
2023-04-18T01:46:34.388Z,-67
2023-04-18T01:49:02.516Z,-67
2023-04-18T01:51:31.292Z,-67
2023-04-18T01:53:59.440Z,-69
2023-04-18T01:56:27.641Z,-67
2023-04-18T01:58:57.327Z,-66
2023-04-18T02:01:25.464Z,-68
2023-04-18T02:03:54.123Z,-68
2023-04-18T02:06:22.452Z,-67
2023-04-18T02:08:50.523Z,-68
2023-04-18T02:11:18.674Z,-68
2023-04-18T02:13:46.783Z,-66
2023-04-18T02:16:16.322Z,-68
2023-04-18T02:18:45.371Z,-67
2023-04-18T02:21:13.508Z,-67
2023-04-18T02:23:41.625Z,-67
2023-04-18T02:26:09.711Z,-67
2023-04-18T02:28:39.048Z,-67
2023-04-18T02:31:07.736Z,-67
2023-04-18T02:33:37.184Z,-67
2023-04-18T02:36:06.806Z,-67
2023-04-18T02:38:34.990Z,-58
2023-04-18T02:41:03.094Z,-57
2023-04-18T02:43:31.698Z,-57
2023-04-18T02:45:59.794Z,-58
2023-04-18T02:48:28.011Z,-57
2023-04-18T02:51:04.375Z,-59
2023-04-18T02:53:32.635Z,-58
2023-04-18T02:56:01.252Z,-58
2023-04-18T02:58:29.676Z,-58
2023-04-18T03:00:59.736Z,-59
2023-04-18T03:03:27.916Z,-58
2023-04-18T03:05:57.386Z,-59
2023-04-18T03:08:26.054Z,-59
2023-04-18T03:10:56.257Z,-59
2023-04-18T03:13:24.978Z,-59
2023-04-18T03:15:53.360Z,-59
2023-04-18T03:18:21.706Z,-59
2023-04-18T03:20:49.909Z,-58
2023-04-18T03:23:19.629Z,-59
2023-04-18T03:25:47.894Z,-59
2023-04-18T03:28:16.002Z,-58
2023-04-18T03:30:44.085Z,-56
2023-04-18T03:33:13.191Z,-57
2023-04-18T03:35:41.426Z,-58
2023-04-18T03:38:09.571Z,-59
2023-04-18T03:40:39.032Z,-58
2023-04-18T03:43:07.126Z,-59
2023-04-18T03:45:35.355Z,-57
2023-04-18T03:48:03.967Z,-60
2023-04-18T03:50:32.199Z,-58
2023-04-18T03:53:00.687Z,-58
2023-04-18T03:55:29.403Z,-58
2023-04-18T03:57:59.145Z,-57
2023-04-18T04:00:27.503Z,-59
2023-04-18T04:02:55.909Z,-57
2023-04-18T04:05:24.196Z,-59
2023-04-18T04:07:52.400Z,-59
2023-04-18T04:10:20.790Z,-58
2023-04-18T04:12:48.944Z,-59
2023-04-18T04:15:18.714Z,-60
2023-04-18T04:17:47.005Z,-58
2023-04-18T04:20:15.436Z,-58
2023-04-18T04:22:43.742Z,-60
2023-04-18T04:25:13.806Z,-57
2023-04-18T04:27:42.709Z,-60
2023-04-18T04:30:13.397Z,-59
2023-04-18T04:32:44.637Z,-57
2023-04-18T04:35:12.825Z,-57
2023-04-18T04:37:41.331Z,-58
2023-04-18T04:40:11.170Z,-57
2023-04-18T04:42:40.982Z,-59
2023-04-18T04:45:10.858Z,-59
2023-04-18T04:47:39.076Z,-59
2023-04-18T04:50:14.601Z,-58
2023-04-18T04:52:42.919Z,-59
2023-04-18T04:55:11.616Z,-58
2023-04-18T04:57:39.794Z,-59
2023-04-18T05:00:09.618Z,-58
2023-04-18T05:02:37.961Z,-58
2023-04-18T05:05:08.707Z,-58
2023-04-18T05:07:36.901Z,-59
2023-04-18T05:10:06.057Z,-59
2023-04-18T05:12:34.215Z,-59
2023-04-18T05:15:02.478Z,-61
2023-04-18T05:17:30.831Z,-58
2023-04-18T05:19:58.969Z,-60
2023-04-18T05:22:28.421Z,-57
2023-04-18T05:24:56.501Z,-58
2023-04-18T05:27:24.942Z,-60
2023-04-18T05:29:53.079Z,-58
2023-04-18T05:32:21.335Z,-59
2023-04-18T05:34:50.111Z,-55
2023-04-18T05:37:18.224Z,-55
2023-04-18T05:39:47.682Z,-54
2023-04-18T05:42:15.798Z,-56
2023-04-18T05:44:43.870Z,-56
2023-04-18T05:47:12.035Z,-57
2023-04-18T05:49:40.146Z,-58
2023-04-18T05:52:08.260Z,-56
2023-04-18T05:54:36.434Z,-55
2023-04-18T05:57:05.917Z,-56
2023-04-18T05:59:34.048Z,-56
2023-04-18T06:02:02.190Z,-57
2023-04-18T06:04:30.450Z,-54
2023-04-18T06:06:58.660Z,-57
2023-04-18T06:09:26.830Z,-52
2023-04-18T06:11:54.944Z,-56
2023-04-18T06:14:24.430Z,-56
2023-04-18T06:16:52.894Z,-54
2023-04-18T06:19:21.033Z,-57
2023-04-18T06:21:50.709Z,-56
2023-04-18T06:24:18.846Z,-56
2023-04-18T06:26:47.247Z,-57
2023-04-18T06:29:15.501Z,-58
2023-04-18T06:31:48.233Z,-58
2023-04-18T06:34:16.521Z,-58
2023-04-18T06:36:44.641Z,-58
2023-04-18T06:39:12.763Z,-57
2023-04-18T06:41:40.887Z,-56
2023-04-18T06:44:08.994Z,-55
2023-04-18T06:46:37.213Z,-56
2023-04-18T06:49:06.824Z,-55
2023-04-18T06:51:34.934Z,-56
2023-04-18T06:54:03.136Z,-58
2023-04-18T06:56:31.415Z,-56
2023-04-18T06:58:59.507Z,-54
2023-04-18T07:01:27.680Z,-56
2023-04-18T07:03:55.936Z,-55
2023-04-18T07:06:26.169Z,-58
2023-04-18T07:08:59.891Z,-53
2023-04-18T07:11:28.270Z,-56
2023-04-18T07:13:56.437Z,-58
2023-04-18T07:16:24.673Z,-55
2023-04-18T07:18:52.814Z,-57
2023-04-18T07:21:21.030Z,-67
2023-04-18T07:23:50.511Z,-67
2023-04-18T07:26:18.991Z,-56
2023-04-18T07:28:47.103Z,-54
2023-04-18T07:31:16.618Z,-57
2023-04-18T07:33:45.006Z,-57
2023-04-18T07:36:13.432Z,-58
2023-04-18T07:38:41.597Z,-56
2023-04-18T07:41:11.364Z,-57
2023-04-18T07:43:40.365Z,-59
2023-04-18T07:46:08.887Z,-56
2023-04-18T07:48:37.139Z,-56
2023-04-18T07:51:05.738Z,-55
2023-04-18T07:53:33.945Z,-55
2023-04-18T07:56:02.026Z,-57
2023-04-18T07:58:31.524Z,-56
2023-04-18T08:00:59.767Z,-56
2023-04-18T08:03:29.711Z,-54
2023-04-18T08:05:57.985Z,-57
2023-04-18T08:08:26.056Z,-57
2023-04-18T08:10:54.204Z,-57
2023-04-18T08:13:22.937Z,-57
2023-04-18T08:15:52.657Z,-57
2023-04-18T08:18:20.936Z,-57
2023-04-18T08:20:49.044Z,-57
2023-04-18T08:23:17.128Z,-56
2023-04-18T08:25:45.746Z,-56
2023-04-18T08:28:14.581Z,-59
2023-04-18T08:30:43.150Z,-57
2023-04-18T08:33:12.636Z,-58
2023-04-18T08:35:40.835Z,-56
2023-04-18T08:38:09.203Z,-57
2023-04-18T08:40:38.498Z,-56
2023-04-18T08:43:09.749Z,-57
2023-04-18T08:45:38.548Z,-57
2023-04-18T08:48:07.615Z,-57
2023-04-18T08:50:37.150Z,-56
2023-04-18T08:53:05.833Z,-56
2023-04-18T08:55:34.414Z,-56
2023-04-18T08:58:02.823Z,-59
2023-04-18T09:00:30.949Z,-66
2023-04-18T09:02:59.362Z,-67
2023-04-18T09:05:28.448Z,-67
2023-04-18T09:07:57.945Z,-67
2023-04-18T09:10:29.105Z,-67
2023-04-18T09:12:58.949Z,-67
2023-04-18T09:15:29.659Z,-67
2023-04-18T09:18:00.166Z,-68
2023-04-18T09:20:35.151Z,-68
2023-04-18T09:23:10.416Z,-68
2023-04-18T09:25:46.367Z,-67
2023-04-18T09:28:26.956Z,-67
2023-04-18T09:30:56.908Z,-68
2023-04-18T09:33:32.579Z,-66
2023-04-18T09:36:19.964Z,-68
2023-04-18T09:38:52.471Z,-68
2023-04-18T09:41:22.802Z,-67
2023-04-18T09:43:52.153Z,-67
2023-04-18T09:46:22.441Z,-67
2023-04-18T09:48:51.799Z,-67
2023-04-18T09:51:20.830Z,-65
2023-04-18T09:53:51.025Z,-67
2023-04-18T09:56:31.905Z,-67
2023-04-18T09:59:09.258Z,-67
2023-04-18T10:01:38.712Z,-66
2023-04-18T10:04:07.981Z,-67
2023-04-18T10:06:39.599Z,-66
2023-04-18T10:09:10.880Z,-67
2023-04-18T10:11:39.442Z,-68
2023-04-18T10:14:12.400Z,-67
2023-04-18T10:16:41.969Z,-66
2023-04-18T10:19:28.084Z,-66
2023-04-18T10:21:58.438Z,-66
2023-04-18T10:28:02.886Z,-67
2023-04-18T10:30:52.541Z,-66
2023-04-18T10:33:33.618Z,-67
2023-04-18T10:36:06.690Z,-66
2023-04-18T10:38:38.633Z,-66
2023-04-18T10:41:25.240Z,-67
2023-04-18T10:44:23.240Z,-67
2023-04-18T10:47:24.458Z,-66
2023-04-18T10:50:01.016Z,-66
2023-04-18T10:52:30.301Z,-66
2023-04-18T10:55:21.129Z,-66
2023-04-18T10:57:51.701Z,-66
2023-04-18T11:00:23.908Z,-66
2023-04-18T11:02:56.515Z,-67
2023-04-18T11:05:28.857Z,-67
2023-04-18T11:07:57.255Z,-68
2023-04-18T11:10:27.768Z,-67
2023-04-18T11:12:57.315Z,-67
2023-04-18T11:15:29.125Z,-67
2023-04-18T11:18:03.503Z,-67
2023-04-18T11:20:40.005Z,-66
2023-04-18T11:23:19.605Z,-67
2023-04-18T11:25:49.440Z,-67
2023-04-18T11:28:21.823Z,-68
2023-04-18T11:30:51.417Z,-66
2023-04-18T11:33:19.990Z,-66
2023-04-18T11:35:48.533Z,-68
2023-04-18T11:38:18.440Z,-67
2023-04-18T11:40:49.399Z,-66
2023-04-18T11:43:22.758Z,-68
2023-04-18T11:45:57.028Z,-67
2023-04-18T11:48:25.773Z,-56
2023-04-18T11:50:54.700Z,-57
2023-04-18T11:53:35.977Z,-55
2023-04-18T11:56:04.980Z,-56
2023-04-18T11:58:34.228Z,-58
2023-04-18T12:01:18.099Z,-56
2023-04-18T12:04:00.953Z,-57
2023-04-18T12:06:29.596Z,-55
2023-04-18T12:09:00.529Z,-55
2023-04-18T12:11:28.771Z,-57
2023-04-18T12:13:58.130Z,-57
2023-04-18T12:16:29.321Z,-57
2023-04-18T12:19:01.366Z,-57
2023-04-18T12:21:30.146Z,-56
2023-04-18T12:23:58.545Z,-55
2023-04-18T12:26:27.436Z,-57
2023-04-18T12:28:55.549Z,-58
2023-04-18T12:31:23.729Z,-55
2023-04-18T12:33:54.376Z,-57
2023-04-18T12:36:23.390Z,-58
2023-04-18T12:38:51.974Z,-56
2023-04-18T12:41:20.165Z,-56
2023-04-18T12:43:48.335Z,-59
2023-04-18T12:46:16.446Z,-60
2023-04-18T12:48:44.569Z,-57
2023-04-18T12:51:14.276Z,-57
2023-04-18T12:53:42.373Z,-54
2023-04-18T12:56:10.798Z,-56
2023-04-18T12:58:38.990Z,-57
2023-04-18T13:01:07.704Z,-54
2023-04-18T13:03:37.037Z,-57
2023-04-18T13:06:06.583Z,-56
2023-04-18T13:08:37.436Z,-56
2023-04-18T13:11:05.793Z,-56
2023-04-18T13:13:35.670Z,-57
2023-04-18T13:16:04.370Z,-56
2023-04-18T13:18:32.492Z,-56
2023-04-18T13:21:00.588Z,-57
2023-04-18T13:23:28.698Z,-56
2023-04-18T13:25:58.250Z,-57
2023-04-18T13:28:26.692Z,-57
2023-04-18T13:30:54.833Z,-57
2023-04-18T13:33:22.976Z,-54
2023-04-18T13:35:51.079Z,-58
2023-04-18T13:38:19.197Z,-56
2023-04-18T13:40:47.287Z,-59
2023-04-18T13:43:16.798Z,-56
2023-04-18T13:45:44.935Z,-52
2023-04-18T13:48:14.450Z,-55
2023-04-18T13:50:44.302Z,-57
2023-04-18T13:53:12.484Z,-57
2023-04-18T13:55:40.633Z,-58
2023-04-18T13:58:09.794Z,-57
2023-04-18T14:00:39.856Z,-57
2023-04-18T14:03:08.056Z,-56
2023-04-18T14:05:36.342Z,-57
2023-04-18T14:08:04.754Z,-56
2023-04-18T14:10:32.974Z,-58
2023-04-18T14:13:01.709Z,-57
2023-04-18T14:15:30.641Z,-58
2023-04-18T14:18:01.044Z,-57
2023-04-18T14:20:34.240Z,-55
2023-04-18T14:23:02.408Z,-57
2023-04-18T14:25:31.398Z,-58
2023-04-18T14:28:09.146Z,-58
2023-04-18T14:30:38.141Z,-55
2023-04-18T14:33:10.147Z,-55
2023-04-18T14:35:38.520Z,-57
2023-04-18T14:38:06.707Z,-54
2023-04-18T14:40:34.795Z,-56
2023-04-18T14:43:02.998Z,-57
2023-04-18T14:45:34.799Z,-56
2023-04-18T14:48:03.250Z,-58
2023-04-18T14:50:33.014Z,-57
2023-04-18T14:53:01.160Z,-56
2023-04-18T14:55:29.365Z,-55
2023-04-18T14:57:57.757Z,-58
2023-04-18T15:00:26.446Z,-56
2023-04-18T15:02:54.889Z,-55
2023-04-18T15:05:24.533Z,-58
2023-04-18T15:07:54.005Z,-55
2023-04-18T15:10:22.513Z,-56
2023-04-18T15:12:52.250Z,-57
2023-04-18T15:15:20.863Z,-56
2023-04-18T15:17:49.023Z,-58
2023-04-18T15:20:17.152Z,-56
2023-04-18T15:22:45.263Z,-56
2023-04-18T15:25:16.314Z,-55
2023-04-18T15:27:44.540Z,-58
2023-04-18T15:30:14.685Z,-56
2023-04-18T15:32:42.927Z,-59
2023-04-18T15:35:11.851Z,-57
2023-04-18T15:37:40.045Z,-57
2023-04-18T15:40:11.268Z,-55
2023-04-18T15:42:40.901Z,-56
2023-04-18T15:45:10.269Z,-55
2023-04-18T15:47:38.700Z,-59
2023-04-18T15:50:10.988Z,-57
2023-04-18T15:52:40.830Z,-57
2023-04-18T15:55:12.971Z,-59
2023-04-18T15:57:43.044Z,-59
2023-04-18T16:00:23.392Z,-60
2023-04-18T16:02:51.868Z,-59
2023-04-18T16:05:20.158Z,-60
2023-04-18T16:07:48.256Z,-57
2023-04-18T16:10:16.430Z,-56
2023-04-18T16:12:46.056Z,-58
2023-04-18T16:15:14.777Z,-57
2023-04-18T16:17:43.051Z,-56
2023-04-18T16:20:11.672Z,-58
2023-04-18T16:22:39.793Z,-58
2023-04-18T16:25:09.969Z,-58
2023-04-18T16:27:38.119Z,-59
2023-04-18T16:30:09.978Z,-60
2023-04-18T16:32:38.999Z,-58
2023-04-18T16:35:10.149Z,-59
2023-04-18T16:37:38.995Z,-60
2023-04-18T16:40:10.077Z,-58
2023-04-18T16:42:38.595Z,-57
2023-04-18T16:45:09.458Z,-59
2023-04-18T16:47:37.747Z,-59
2023-04-18T16:50:07.483Z,-58
2023-04-18T16:52:35.597Z,-59
2023-04-18T16:55:03.756Z,-61
2023-04-18T16:57:31.848Z,-56
2023-04-18T17:00:02.136Z,-58
2023-04-18T17:02:31.820Z,-57
2023-04-18T17:05:00.059Z,-59
2023-04-18T17:07:28.232Z,-60
2023-04-18T17:09:56.356Z,-59
2023-04-18T17:12:24.773Z,-59
2023-04-18T17:14:52.935Z,-59
2023-04-18T17:17:21.040Z,-59
2023-04-18T17:19:50.765Z,-56
2023-04-18T17:22:18.935Z,-55
2023-04-18T17:24:47.096Z,-57
2023-04-18T17:27:15.213Z,-55
2023-04-18T17:29:43.355Z,-55
2023-04-18T17:32:11.482Z,-56
2023-04-18T17:34:39.588Z,-56
2023-04-18T17:37:09.062Z,-54
2023-04-18T17:39:37.470Z,-54
2023-04-18T17:42:05.739Z,-59
2023-04-18T17:44:33.925Z,-58
2023-04-18T17:47:02.476Z,-57
2023-04-18T17:49:34.478Z,-57
2023-04-18T17:52:03.023Z,-56
2023-04-18T17:54:33.672Z,-58
2023-04-18T17:57:01.884Z,-56
2023-04-18T17:59:30.362Z,-58
2023-04-18T18:01:59.524Z,-57
2023-04-18T18:04:27.985Z,-59
2023-04-18T18:06:56.575Z,-60
2023-04-18T18:09:24.763Z,-57
2023-04-18T18:11:55.903Z,-56
2023-04-18T18:14:24.335Z,-57
2023-04-18T18:16:52.532Z,-58
2023-04-18T18:19:21.050Z,-59
2023-04-18T18:21:49.145Z,-57
2023-04-18T18:24:18.611Z,-57
2023-04-18T18:26:46.841Z,-59
2023-04-18T18:29:16.534Z,-59
2023-04-18T18:31:44.988Z,-58
2023-04-18T18:34:13.164Z,-57
2023-04-18T18:36:41.264Z,-59
2023-04-18T18:39:09.432Z,-56
2023-04-18T18:41:37.520Z,-55
2023-04-18T18:44:06.909Z,-60
2023-04-18T18:46:36.401Z,-56
2023-04-18T18:49:04.620Z,-57
2023-04-18T18:51:32.891Z,-59
2023-04-18T18:54:01.017Z,-58
2023-04-18T18:56:29.165Z,-55
2023-04-18T18:58:57.294Z,-57
2023-04-18T19:01:25.643Z,-58
2023-04-18T19:03:55.384Z,-58
2023-04-18T19:06:23.669Z,-57
2023-04-18T19:08:51.807Z,-60
2023-04-18T19:11:20.979Z,-59
2023-04-18T19:13:52.036Z,-57
2023-04-18T19:16:20.381Z,-59
2023-04-18T19:18:50.412Z,-59
2023-04-18T19:21:20.567Z,-59
2023-04-18T19:23:48.774Z,-60
2023-04-18T19:26:16.985Z,-62
2023-04-18T19:28:45.138Z,-59
2023-04-18T19:31:13.360Z,-58
2023-04-18T19:33:41.536Z,-58
2023-04-18T19:36:09.766Z,-58
2023-04-18T19:38:39.271Z,-58
2023-04-18T19:41:07.384Z,-57
2023-04-18T19:43:38.287Z,-58
2023-04-18T19:46:06.469Z,-59
2023-04-18T19:48:34.642Z,-58
2023-04-18T19:51:04.207Z,-58
2023-04-18T19:53:32.353Z,-58
2023-04-18T19:56:01.849Z,-59
2023-04-18T19:58:37.901Z,-57
2023-04-18T20:01:07.574Z,-57
2023-04-18T20:03:35.797Z,-55
2023-04-18T20:06:05.471Z,-55
2023-04-18T20:08:35.944Z,-55
2023-04-18T20:11:07.928Z,-56
2023-04-18T20:13:37.329Z,-57
2023-04-18T20:16:07.197Z,-57
2023-04-18T20:18:35.914Z,-58
2023-04-18T20:21:04.540Z,-55
2023-04-18T20:23:32.733Z,-56
2023-04-18T20:26:01.003Z,-56
2023-04-18T20:28:30.505Z,-57
2023-04-18T20:30:58.710Z,-57
2023-04-18T20:33:26.964Z,-56
2023-04-18T20:35:55.209Z,-57
2023-04-18T20:38:25.816Z,-57
2023-04-18T20:40:54.613Z,-55
2023-04-18T20:43:23.093Z,-55
2023-04-18T20:45:53.836Z,-56
2023-04-18T20:48:22.447Z,-59
2023-04-18T20:50:51.941Z,-56
2023-04-18T20:53:21.655Z,-59
2023-04-18T20:55:50.200Z,-57
2023-04-18T20:58:18.355Z,-57
2023-04-18T21:00:46.554Z,-56
2023-04-18T21:03:17.251Z,-57
2023-04-18T21:05:46.116Z,-56
2023-04-18T21:08:14.265Z,-56
2023-04-18T21:10:42.390Z,-56
2023-04-18T21:13:12.466Z,-55
2023-04-18T21:15:42.622Z,-57
2023-04-18T21:18:10.840Z,-56
2023-04-18T21:20:40.321Z,-55
2023-04-18T21:23:08.549Z,-56
2023-04-18T21:25:36.677Z,-58
2023-04-18T21:28:05.307Z,-57
2023-04-18T21:30:33.555Z,-55
2023-04-18T21:33:01.685Z,-58
2023-04-18T21:35:29.974Z,-55
2023-04-18T21:37:59.695Z,-55
2023-04-18T21:40:30.559Z,-55
2023-04-18T21:42:58.746Z,-56
2023-04-18T21:45:27.240Z,-57
2023-04-18T21:47:55.426Z,-51
2023-04-18T21:50:24.300Z,-55
2023-04-18T21:52:52.373Z,-56
2023-04-18T21:55:22.066Z,-56
2023-04-18T21:57:50.406Z,-56
2023-04-18T22:00:20.366Z,-57
2023-04-18T22:02:48.562Z,-56
2023-04-18T22:05:17.149Z,-55
2023-04-18T22:07:54.922Z,-54
2023-04-18T22:10:27.332Z,-57
2023-04-18T22:12:56.023Z,-55
2023-04-18T22:15:26.946Z,-55
2023-04-18T22:17:55.344Z,-59
2023-04-18T22:20:25.497Z,-56
2023-04-18T22:22:54.165Z,-58
2023-04-18T22:25:22.235Z,-56
2023-04-18T22:27:51.804Z,-57
2023-04-18T22:30:19.923Z,-57
2023-04-18T22:32:48.337Z,-55
2023-04-18T22:35:17.350Z,-56
2023-04-18T22:37:45.456Z,-58
2023-04-18T22:40:15.605Z,-56
2023-04-18T22:42:44.268Z,-58
2023-04-18T22:45:14.588Z,-55
2023-04-18T22:47:42.755Z,-55
2023-04-18T22:50:11.709Z,-57
2023-04-18T22:52:39.886Z,-55
2023-04-18T22:55:09.310Z,-57
2023-04-18T22:57:39.021Z,-56
2023-04-18T23:00:10.035Z,-54
2023-04-18T23:02:39.657Z,-57
2023-04-18T23:05:10.738Z,-55
2023-04-18T23:07:38.895Z,-56
2023-04-18T23:10:09.085Z,-54
2023-04-18T23:12:37.210Z,-56
2023-04-18T23:15:06.680Z,-54
2023-04-18T23:17:34.986Z,-57
2023-04-18T23:20:06.721Z,-56
2023-04-18T23:22:34.916Z,-55
2023-04-18T23:25:03.367Z,-57
2023-04-18T23:27:31.536Z,-54
2023-04-18T23:29:59.663Z,-55
2023-04-18T23:32:27.821Z,-55
2023-04-18T23:34:55.930Z,-58
2023-04-18T23:37:25.664Z,-58
2023-04-18T23:39:53.778Z,-56
2023-04-18T23:42:21.865Z,-59
2023-04-18T23:44:50.372Z,-59
2023-04-18T23:47:18.633Z,-55
2023-04-18T23:49:46.832Z,-56
2023-04-18T23:52:14.962Z,-55
2023-04-18T23:54:44.505Z,-56
2023-04-18T23:57:12.615Z,-56
2023-04-18T23:59:40.894Z,-54
